METAR Data
IDs: Format: Raw Decoded Include TAF

Data at: 0301 UTC 21 Sep 2021

KRDU 210251Z 08009KT 10SM SCT075 BKN100 OVC250 22/17 A3023 RMK AO2 SLP232 T02170172 51011

KRDU 210115Z 2101/2124 08009KT P6SM SCT040 OVC250
  FM211400 10006KT P6SM VCSH BKN015 OVC050
  FM211800 09007KT 4SM -RA BR OVC025
  PROB30 2120/2124 2SM TSRA BKN007CB